Time;durP1;ratioP1;P1;durP2;ratioP2;P2;SDS_P1;SDS_P2;PMS_P1;PMS_P2;Temp;Humidity;BMP_temperature;BMP_pressure;BME280_temperature;BME280_humidity;BME280_pressure;Samples;Min_cycle;Max_cycle;Signal;HPM_P1;HPM_P2
2022/03/17 06:00:43;;;;;;;34.27;30.97;;;10.70;97.20;;;;;;1707330;29;20293;-77
2022/03/17 06:01:34;;;;;;;36.10;32.60;;;10.70;97.20;;;;;;1707388;28;20217;-77
2022/03/17 06:02:26;;;;;;;36.20;32.80;;;10.70;97.20;;;;;;1707422;29;20210;-77
2022/03/17 06:03:17;;;;;;;36.55;33.05;;;10.70;97.20;;;;;;1707407;29;20454;-76
2022/03/17 06:04:09;;;;;;;38.67;35.08;;;10.70;97.20;;;;;;1707109;29;20277;-76
2022/03/17 06:05:00;;;;;;;35.70;32.50;;;10.70;97.20;;;;;;1707470;28;20230;-77
2022/03/17 06:05:52;;;;;;;40.50;36.57;;;10.70;97.20;;;;;;1707567;29;20207;-77
2022/03/17 06:06:42;;;;;;;38.67;34.92;;;10.70;97.20;;;;;;1707540;28;20489;-77
2022/03/17 06:07:38;;;;;;;37.53;34.03;;;10.80;97.20;;;;;;1707438;28;20214;-77
2022/03/17 06:08:29;;;;;;;37.33;33.85;;;10.80;97.20;;;;;;1707357;28;20233;-78
2022/03/17 06:09:21;;;;;;;38.90;35.30;;;10.80;97.20;;;;;;1707405;28;20694;-77
2022/03/17 06:10:14;;;;;;;38.78;35.28;;;10.80;97.20;;;;;;1707338;28;20195;-77
2022/03/17 06:11:06;;;;;;;38.45;34.55;;;10.80;97.20;;;;;;1707362;28;20210;-77
2022/03/17 06:11:58;;;;;;;40.67;36.75;;;10.80;97.20;;;;;;1707319;28;20202;-77
2022/03/17 06:12:51;;;;;;;40.50;36.70;;;10.80;97.20;;;;;;1707490;28;20586;-77
2022/03/17 06:13:43;;;;;;;40.45;36.65;;;10.90;97.20;;;;;;1707170;28;20249;-77
2022/03/17 06:14:35;;;;;;;40.38;36.40;;;10.80;97.20;;;;;;1707511;29;20567;-77
2022/03/17 06:15:26;;;;;;;38.92;35.33;;;10.80;97.20;;;;;;1707379;29;20241;-77
2022/03/17 06:16:20;;;;;;;39.70;35.90;;;10.90;97.20;;;;;;1707348;29;20206;-77
2022/03/17 06:17:12;;;;;;;40.33;36.63;;;10.90;97.20;;;;;;1707434;29;20206;-76
2022/03/17 06:18:06;;;;;;;42.60;38.30;;;10.80;97.20;;;;;;1707107;29;20605;-77
2022/03/17 06:18:57;;;;;;;40.67;36.70;;;10.80;97.20;;;;;;1707296;29;20217;-77
2022/03/17 06:19:48;;;;;;;41.23;37.20;;;10.80;97.20;;;;;;1707405;28;20744;-77
2022/03/17 06:20:39;;;;;;;38.80;35.20;;;10.80;97.20;;;;;;1707306;29;20222;-77
2022/03/17 06:21:31;;;;;;;40.03;35.93;;;10.80;97.20;;;;;;1707358;29;20202;-77
2022/03/17 06:22:21;;;;;;;41.20;37.00;;;10.80;97.20;;;;;;1707271;29;20457;-77
2022/03/17 06:23:13;;;;;;;39.07;35.27;;;10.80;97.20;;;;;;1707371;29;20206;-77
2022/03/17 06:24:06;;;;;;;39.88;36.03;;;10.80;97.20;;;;;;1707070;29;20213;-77
2022/03/17 06:24:57;;;;;;;38.63;35.03;;;10.80;97.20;;;;;;1707439;28;20202;-77
2022/03/17 06:25:50;;;;;;;40.80;36.75;;;10.80;97.20;;;;;;1707390;28;20237;-77
2022/03/17 06:26:41;;;;;;;41.13;37.22;;;10.80;97.20;;;;;;1707363;28;20211;-77
2022/03/17 06:27:34;;;;;;;40.33;36.43;;;10.80;97.20;;;;;;1707188;28;20191;-77
2022/03/17 06:28:25;;;;;;;40.67;36.65;;;10.80;97.20;;;;;;1706980;29;20263;-77
2022/03/17 06:29:16;;;;;;;41.13;37.22;;;10.80;97.20;;;;;;1707260;29;20586;-77
2022/03/17 06:30:10;;;;;;;39.37;35.67;;;10.70;97.20;;;;;;1707266;29;20293;-77
2022/03/17 06:31:01;;;;;;;41.85;37.70;;;10.70;97.20;;;;;;1707286;28;20518;-77
2022/03/17 06:31:55;;;;;;;42.30;38.33;;;10.70;97.20;;;;;;1707344;29;20661;-77
2022/03/17 06:32:46;;;;;;;41.33;37.22;;;10.70;97.20;;;;;;1707102;29;20454;-77
2022/03/17 06:33:38;;;;;;;41.33;37.25;;;10.70;97.20;;;;;;1706362;28;20305;-77
2022/03/17 06:34:29;;;;;;;41.60;37.75;;;10.70;97.20;;;;;;1706668;28;20225;-77
2022/03/17 06:35:23;;;;;;;41.50;37.50;;;10.70;97.20;;;;;;1706726;28;20309;-77
2022/03/17 06:36:13;;;;;;;40.72;36.70;;;10.60;97.20;;;;;;1706705;29;20539;-77
2022/03/17 06:37:05;;;;;;;41.13;37.13;;;10.70;97.20;;;;;;1706524;28;20669;-77
2022/03/17 06:37:58;;;;;;;43.28;39.20;;;10.70;97.20;;;;;;1707206;29;20207;-77
2022/03/17 06:38:49;;;;;;;41.13;36.88;;;10.70;97.20;;;;;;1706795;28;20230;-77
2022/03/17 06:39:40;;;;;;;42.13;38.05;;;10.70;97.20;;;;;;1707181;28;20757;-77
2022/03/17 06:40:32;;;;;;;42.43;38.37;;;10.70;97.20;;;;;;1707157;28;20254;-77
2022/03/17 06:41:23;;;;;;;42.00;38.17;;;10.70;97.20;;;;;;1707314;28;20233;-77
2022/03/17 06:42:15;;;;;;;44.13;40.03;;;10.70;97.20;;;;;;1707465;28;20221;-77
2022/03/17 06:43:06;;;;;;;40.08;35.97;;;10.70;97.20;;;;;;1707273;28;20206;-77
2022/03/17 06:43:57;;;;;;;41.23;37.43;;;10.70;97.20;;;;;;1707022;28;20191;-77
2022/03/17 06:44:48;;;;;;;41.53;37.17;;;10.70;97.20;;;;;;1707073;29;20213;-77
2022/03/17 06:45:40;;;;;;;44.30;39.63;;;10.70;97.20;;;;;;1707439;28;20210;-77
2022/03/17 06:46:30;;;;;;;41.90;37.90;;;10.80;97.20;;;;;;1707305;28;20246;-77
2022/03/17 06:47:23;;;;;;;44.13;39.53;;;10.80;97.20;;;;;;1707367;28;20210;-77
2022/03/17 06:48:14;;;;;;;42.92;38.83;;;10.80;97.20;;;;;;1706900;28;20232;-77
2022/03/17 06:49:06;;;;;;;41.53;36.17;;;10.80;97.20;;;;;;1707340;28;20206;-77
2022/03/17 06:49:56;;;;;;;41.30;37.38;;;10.80;97.20;;;;;;1707331;28;20783;-77
2022/03/17 06:50:48;;;;;;;41.97;37.60;;;10.80;97.20;;;;;;1707322;28;20346;-77
2022/03/17 06:51:39;;;;;;;42.22;38.05;;;10.80;97.20;;;;;;1707240;28;20230;-77
2022/03/17 06:52:31;;;;;;;40.03;36.00;;;10.90;97.20;;;;;;1707220;28;20201;-77
2022/03/17 06:53:21;;;;;;;39.90;36.03;;;10.90;97.20;;;;;;1707252;28;20242;-77
2022/03/17 06:54:13;;;;;;;41.00;37.00;;;10.90;97.20;;;;;;1707014;28;20201;-77
2022/03/17 06:55:05;;;;;;;39.28;35.58;;;10.90;97.20;;;;;;1707261;29;20669;-77
2022/03/17 06:55:56;;;;;;;38.45;34.85;;;10.90;97.20;;;;;;1707410;28;20277;-77
2022/03/17 06:56:47;;;;;;;38.50;34.80;;;10.90;97.20;;;;;;1707224;29;20584;-77
2022/03/17 06:57:39;;;;;;;36.70;33.10;;;10.90;97.20;;;;;;1707196;29;20221;-77
2022/03/17 06:58:31;;;;;;;36.42;33.03;;;10.90;97.20;;;;;;1706901;29;20198;-77
2022/03/17 06:59:23;;;;;;;36.60;33.15;;;10.80;97.20;;;;;;1707171;29;20198;-77
2022/03/17 07:00:16;;;;;;;36.30;32.70;;;10.80;97.20;;;;;;1707019;29;20225;-77
2022/03/17 07:01:07;;;;;;;36.25;32.83;;;10.80;97.20;;;;;;1707261;28;20206;-77
2022/03/17 07:01:58;;;;;;;34.58;31.38;;;10.80;97.20;;;;;;1707267;29;20234;-77
2022/03/17 07:02:51;;;;;;;35.03;31.77;;;10.80;97.20;;;;;;1707280;29;20202;-77
2022/03/17 07:03:42;;;;;;;36.15;32.55;;;10.80;97.20;;;;;;1706986;29;20560;-77
2022/03/17 07:04:34;;;;;;;36.17;32.67;;;10.80;97.20;;;;;;1707139;28;20195;-77
2022/03/17 07:05:24;;;;;;;34.55;31.30;;;10.70;97.20;;;;;;1707335;28;20243;-77
2022/03/17 07:06:16;;;;;;;37.23;33.43;;;10.70;97.20;;;;;;1707348;28;20210;-77
2022/03/17 07:07:07;;;;;;;37.42;33.88;;;10.70;97.20;;;;;;1707322;28;20450;-77
2022/03/17 07:07:59;;;;;;;37.20;33.67;;;10.70;97.20;;;;;;1707359;28;20209;-77
2022/03/17 07:08:49;;;;;;;35.55;31.95;;;10.70;97.20;;;;;;1707079;28;20601;-77
2022/03/17 07:09:42;;;;;;;35.50;32.30;;;10.70;97.20;;;;;;1707131;28;20214;-77
2022/03/17 07:10:33;;;;;;;35.10;31.80;;;10.70;97.20;;;;;;1707176;28;20654;-77
2022/03/17 07:11:24;;;;;;;37.03;33.53;;;10.80;97.20;;;;;;1707274;28;20686;-77
2022/03/17 07:12:15;;;;;;;36.42;33.03;;;10.70;97.20;;;;;;1707257;28;20252;-77
2022/03/17 07:13:07;;;;;;;37.30;33.83;;;10.70;97.20;;;;;;1707253;28;20206;-77
2022/03/17 07:13:58;;;;;;;34.88;31.67;;;10.80;97.20;;;;;;1707657;28;20484;-77
2022/03/17 07:14:50;;;;;;;35.37;31.93;;;10.80;97.20;;;;;;1708615;29;20205;-77
2022/03/17 07:15:40;;;;;;;35.97;32.58;;;10.80;97.20;;;;;;1708628;29;20237;-77
2022/03/17 07:16:32;;;;;;;33.70;30.50;;;10.80;97.20;;;;;;1708836;29;20210;-77
2022/03/17 07:17:23;;;;;;;36.95;33.25;;;10.80;97.20;;;;;;1708669;29;20209;-77
2022/03/17 07:18:16;;;;;;;37.03;33.53;;;10.90;97.20;;;;;;1708292;29;20200;-77
2022/03/17 07:19:07;;;;;;;37.17;33.60;;;10.90;97.20;;;;;;1708422;29;20250;-77
2022/03/17 07:19:59;;;;;;;36.72;33.17;;;10.90;97.20;;;;;;1708315;29;20230;-77
2022/03/17 07:20:51;;;;;;;36.53;32.75;;;10.90;97.20;;;;;;1708504;28;20331;-77
2022/03/17 07:21:42;;;;;;;36.72;33.33;;;10.90;97.20;;;;;;1708490;28;20676;-77
2022/03/17 07:22:34;;;;;;;38.70;35.00;;;10.90;97.20;;;;;;1708680;28;20554;-77
2022/03/17 07:23:25;;;;;;;34.70;31.20;;;10.90;97.20;;;;;;1708510;29;20988;-77
2022/03/17 07:24:16;;;;;;;37.07;33.57;;;10.90;97.20;;;;;;1708211;29;20597;-77
2022/03/17 07:25:09;;;;;;;37.65;34.03;;;10.90;97.20;;;;;;1708436;28;20454;-77
2022/03/17 07:26:02;;;;;;;39.10;35.30;;;11.00;97.20;;;;;;1708462;28;20225;-77
2022/03/17 07:26:53;;;;;;;39.47;35.85;;;11.00;97.20;;;;;;1708579;28;20664;-77
2022/03/17 07:27:47;;;;;;;38.95;35.30;;;11.00;97.20;;;;;;1708481;28;20202;-77
2022/03/17 07:28:37;;;;;;;39.47;35.70;;;11.00;97.20;;;;;;1708264;28;20622;-77
2022/03/17 07:29:29;;;;;;;41.80;37.63;;;11.00;97.20;;;;;;1708458;28;20202;-77
2022/03/17 07:30:22;;;;;;;41.53;37.42;;;11.10;97.20;;;;;;1708348;28;20198;-77
2022/03/17 07:31:13;;;;;;;39.60;35.85;;;11.10;97.20;;;;;;1708480;28;20273;-77
2022/03/17 07:32:05;;;;;;;41.40;37.50;;;11.10;97.20;;;;;;1708405;29;20237;-77
2022/03/17 07:32:58;;;;;;;39.92;36.15;;;11.10;97.20;;;;;;1708552;28;20210;-77
2022/03/17 07:33:50;;;;;;;42.63;38.45;;;11.10;97.20;;;;;;1708129;28;20206;-77
2022/03/17 07:34:42;;;;;;;41.53;37.47;;;11.10;97.20;;;;;;1708370;29;20345;-77
2022/03/17 07:35:33;;;;;;;40.78;36.90;;;11.10;97.20;;;;;;1708496;29;20213;-77
2022/03/17 07:36:25;;;;;;;40.47;36.67;;;11.10;97.20;;;;;;1708335;28;20285;-77
2022/03/17 07:37:16;;;;;;;40.53;36.65;;;11.10;97.20;;;;;;1708393;29;20233;-77
2022/03/17 07:38:07;;;;;;;40.88;37.08;;;11.10;97.20;;;;;;1708172;29;20220;-77
2022/03/17 07:39:01;;;;;;;43.10;38.58;;;11.10;97.20;;;;;;1708414;29;20717;-77
2022/03/17 07:39:52;;;;;;;41.38;37.45;;;11.10;97.20;;;;;;1708200;29;20226;-77
2022/03/17 07:40:45;;;;;;;40.85;36.78;;;11.10;97.20;;;;;;1708408;29;20669;-77
2022/03/17 07:41:36;;;;;;;44.28;40.03;;;11.10;97.20;;;;;;1708449;29;20225;-77
2022/03/17 07:42:28;;;;;;;41.13;37.23;;;11.10;97.20;;;;;;1708498;29;20297;-77
2022/03/17 07:43:18;;;;;;;41.25;37.33;;;11.10;97.20;;;;;;1708449;29;20218;-77
2022/03/17 07:44:10;;;;;;;41.30;37.07;;;11.20;97.20;;;;;;1708139;29;20277;-77
2022/03/17 07:45:01;;;;;;;43.13;39.08;;;11.20;97.20;;;;;;1708322;28;20206;-77
2022/03/17 07:45:53;;;;;;;41.10;36.90;;;11.20;97.20;;;;;;1708494;28;20194;-77
2022/03/17 07:46:45;;;;;;;42.65;38.65;;;11.20;97.20;;;;;;1708362;28;20472;-77
2022/03/17 07:47:44;;;;;;;42.28;38.38;;;11.20;97.20;;;;;;1708460;28;20586;-77
2022/03/17 07:48:35;;;;;;;41.17;37.25;;;11.20;97.20;;;;;;1708279;28;20211;-77
2022/03/17 07:49:28;;;;;;;42.65;38.35;;;11.20;97.20;;;;;;1708348;28;20258;-77
2022/03/17 07:50:20;;;;;;;41.60;37.60;;;11.20;97.20;;;;;;1708212;28;20199;-77
2022/03/17 07:51:11;;;;;;;41.70;37.35;;;11.20;97.20;;;;;;1708375;28;20234;-77
2022/03/17 07:52:04;;;;;;;42.83;38.53;;;11.30;97.20;;;;;;1708304;28;20212;-77
2022/03/17 07:52:54;;;;;;;41.38;37.53;;;11.30;97.20;;;;;;1707143;28;20449;-77
2022/03/17 07:53:46;;;;;;;42.70;38.50;;;11.30;97.20;;;;;;1701626;29;20282;-78
2022/03/17 07:54:37;;;;;;;42.97;38.88;;;11.30;97.20;;;;;;1701574;29;20203;-77
2022/03/17 07:55:28;;;;;;;40.43;36.53;;;11.30;97.20;;;;;;1701684;29;20209;-78
2022/03/17 07:56:20;;;;;;;41.15;36.95;;;11.40;97.20;;;;;;1701647;29;20237;-77
2022/03/17 07:57:12;;;;;;;42.38;38.28;;;11.40;97.20;;;;;;1701786;29;20203;-76
2022/03/17 07:58:03;;;;;;;43.95;39.47;;;11.40;97.20;;;;;;1701520;29;20211;-77
2022/03/17 07:58:54;;;;;;;44.70;40.20;;;11.40;97.20;;;;;;1701725;29;20195;-77
2022/03/17 07:59:45;;;;;;;44.47;39.97;;;11.50;97.20;;;;;;1701102;29;20447;-77
2022/03/17 08:00:37;;;;;;;43.93;39.63;;;11.50;97.20;;;;;;1704244;29;20238;-78
2022/03/17 08:01:28;;;;;;;43.85;39.55;;;11.50;97.20;;;;;;1705263;28;20454;-78
2022/03/17 08:02:20;;;;;;;44.43;40.03;;;11.50;97.20;;;;;;1707995;28;20213;-78
2022/03/17 08:03:11;;;;;;;43.22;39.10;;;11.40;97.20;;;;;;1707969;28;20969;-78
2022/03/17 08:04:03;;;;;;;41.83;37.80;;;11.40;97.20;;;;;;1705419;29;20543;-78
2022/03/17 08:04:55;;;;;;;43.20;39.05;;;11.40;97.20;;;;;;1701831;29;20271;-78
2022/03/17 08:05:47;;;;;;;42.97;38.90;;;11.40;97.20;;;;;;1701693;29;20208;-78
2022/03/17 08:06:39;;;;;;;42.28;38.08;;;11.40;97.20;;;;;;1704125;29;20207;-78
2022/03/17 08:07:30;;;;;;;42.63;38.53;;;11.40;97.20;;;;;;1707939;29;20273;-78
2022/03/17 08:08:22;;;;;;;43.97;39.50;;;11.40;97.20;;;;;;1707000;28;20217;-78
2022/03/17 08:09:13;;;;;;;43.65;39.40;;;11.40;97.20;;;;;;1702032;29;20555;-78
2022/03/17 08:10:05;;;;;;;43.23;39.13;;;11.40;97.20;;;;;;1702450;29;20310;-77
2022/03/17 08:10:57;;;;;;;44.55;38.70;;;11.40;97.20;;;;;;1708014;28;20253;-77
2022/03/17 08:11:49;;;;;;;45.83;41.40;;;11.40;97.20;;;;;;1704243;29;20609;-78
2022/03/17 08:12:39;;;;;;;44.40;39.97;;;11.40;97.20;;;;;;1701712;29;20665;-77
2022/03/17 08:13:31;;;;;;;43.03;38.90;;;11.40;97.20;;;;;;1701610;29;20744;-77
2022/03/17 08:14:22;;;;;;;43.88;39.63;;;11.40;97.20;;;;;;1701678;29;20211;-78
2022/03/17 08:15:14;;;;;;;43.53;39.13;;;11.40;97.20;;;;;;1701779;29;20278;-78
2022/03/17 08:16:06;;;;;;;44.17;39.78;;;11.40;97.20;;;;;;1701430;29;20832;-77
2022/03/17 08:16:57;;;;;;;44.67;40.38;;;11.40;97.20;;;;;;1703091;29;20199;-78
2022/03/17 08:17:48;;;;;;;43.38;39.05;;;11.40;97.20;;;;;;1708097;29;20243;-78
2022/03/17 08:18:41;;;;;;;41.80;37.80;;;11.40;97.20;;;;;;1704838;29;20678;-77
2022/03/17 08:19:31;;;;;;;43.72;39.53;;;11.40;97.20;;;;;;1701666;29;20215;-78
2022/03/17 08:20:25;;;;;;;42.87;38.43;;;11.40;97.20;;;;;;1701422;29;20203;-77
2022/03/17 08:21:15;;;;;;;44.17;39.50;;;11.40;97.20;;;;;;1701622;29;20807;-78
2022/03/17 08:22:07;;;;;;;43.03;38.67;;;11.40;97.20;;;;;;1701554;29;20606;-78
2022/03/17 08:22:58;;;;;;;43.55;39.25;;;11.40;97.20;;;;;;1701590;29;20206;-78
2022/03/17 08:23:49;;;;;;;43.10;38.90;;;11.40;97.20;;;;;;1701761;29;20234;-77
2022/03/17 08:24:40;;;;;;;41.95;37.47;;;11.40;97.20;;;;;;1701478;29;20214;-78
2022/03/17 08:25:32;;;;;;;43.10;38.90;;;11.40;97.20;;;;;;1700571;29;20206;-77
2022/03/17 08:26:23;;;;;;;42.65;38.47;;;11.40;97.20;;;;;;1701544;29;20226;-77
2022/03/17 08:27:14;;;;;;;43.60;39.10;;;11.30;97.20;;;;;;1703876;29;20271;-77
2022/03/17 08:28:08;;;;;;;46.90;42.33;;;11.30;97.20;;;;;;1707956;29;20214;-78
2022/03/17 08:29:00;;;;;;;46.38;41.78;;;11.30;97.20;;;;;;1708189;29;20207;-78
2022/03/17 08:29:51;;;;;;;44.25;39.50;;;11.30;97.20;;;;;;1708153;29;20730;-78
2022/03/17 08:30:43;;;;;;;42.70;38.70;;;11.30;97.20;;;;;;1708012;29;20258;-78
2022/03/17 08:31:35;;;;;;;44.25;40.05;;;11.30;97.20;;;;;;1708135;29;20446;-78
2022/03/17 08:32:25;;;;;;;44.15;39.72;;;11.40;97.20;;;;;;1708184;29;20222;-78
2022/03/17 08:33:18;;;;;;;42.50;38.03;;;11.40;97.20;;;;;;1707999;29;20301;-78
2022/03/17 08:34:09;;;;;;;44.20;39.90;;;11.40;97.20;;;;;;1708293;28;20210;-78
2022/03/17 08:35:01;;;;;;;43.27;39.07;;;11.40;97.20;;;;;;1708203;29;20202;-77
2022/03/17 08:35:54;;;;;;;42.50;38.38;;;11.40;97.20;;;;;;1708101;29;20210;-78
2022/03/17 08:36:45;;;;;;;43.70;39.30;;;11.40;97.20;;;;;;1708097;29;20684;-78
2022/03/17 08:37:40;;;;;;;42.55;38.35;;;11.40;97.20;;;;;;1707887;29;20220;-78
2022/03/17 08:38:31;;;;;;;42.72;38.58;;;11.50;97.20;;;;;;1707929;28;20260;-78
2022/03/17 08:39:22;;;;;;;41.60;37.60;;;11.50;97.20;;;;;;1707978;28;20202;-78
2022/03/17 08:40:15;;;;;;;42.87;38.53;;;11.50;97.20;;;;;;1708105;28;20211;-78
2022/03/17 08:41:06;;;;;;;41.08;37.17;;;11.50;97.20;;;;;;1708082;28;20748;-78
2022/03/17 08:41:57;;;;;;;40.85;36.78;;;11.50;97.20;;;;;;1707962;28;20241;-78
2022/03/17 08:42:49;;;;;;;42.20;38.00;;;11.60;97.20;;;;;;1708108;29;20207;-78
2022/03/17 08:43:39;;;;;;;42.13;37.85;;;11.60;97.20;;;;;;1708051;28;20570;-78
2022/03/17 08:44:31;;;;;;;43.73;39.40;;;11.60;97.20;;;;;;1708171;28;20330;-78
2022/03/17 08:50:05;;;;;;;42.47;38.25;;;11.70;97.20;;;;;;1707219;28;20265;-78
2022/03/17 08:50:57;;;;;;;40.78;36.78;;;11.70;97.20;;;;;;1707968;29;20227;-78
2022/03/17 08:51:51;;;;;;;42.72;38.58;;;11.70;97.20;;;;;;1708097;28;20213;-78
2022/03/17 08:52:42;;;;;;;43.80;39.38;;;11.70;97.20;;;;;;1707951;29;20721;-78
2022/03/17 08:53:34;;;;;;;44.80;38.63;;;11.70;97.20;;;;;;1707989;29;20563;-78
2022/03/17 08:54:27;;;;;;;43.10;39.00;;;11.70;97.20;;;;;;1708166;29;20206;-78
2022/03/17 08:55:20;;;;;;;41.75;37.55;;;11.80;97.20;;;;;;1703855;29;20211;-78
2022/03/17 08:56:12;;;;;;;41.17;37.05;;;11.80;97.20;;;;;;1701494;29;20242;-78
2022/03/17 08:57:04;;;;;;;42.15;38.05;;;11.80;97.20;;;;;;1701642;29;20238;-78
2022/03/17 08:57:57;;;;;;;40.95;36.97;;;11.80;97.20;;;;;;1707863;28;20230;-78
2022/03/17 08:58:48;;;;;;;41.55;37.65;;;11.80;97.20;;;;;;1707609;28;20206;-78
2022/03/17 08:59:40;;;;;;;39.50;35.60;;;11.80;97.20;;;;;;1708058;28;20202;-78
2022/03/17 09:00:34;;;;;;;40.30;36.40;;;11.80;97.20;;;;;;1707919;28;20491;-78
2022/03/17 09:01:26;;;;;;;41.35;37.22;;;11.80;97.20;;;;;;1707805;28;20268;-78
2022/03/17 09:02:16;;;;;;;40.90;36.50;;;11.80;97.20;;;;;;1708081;28;20237;-78
2022/03/17 09:03:09;;;;;;;42.47;38.40;;;11.80;97.20;;;;;;1708101;28;20206;-78
2022/03/17 09:04:02;;;;;;;41.20;37.30;;;11.80;97.20;;;;;;1707959;28;20222;-78
2022/03/17 09:04:53;;;;;;;40.97;37.05;;;11.80;97.20;;;;;;1708015;28;20265;-78
2022/03/17 09:05:44;;;;;;;40.30;36.30;;;11.80;97.20;;;;;;1707927;28;20582;-78
2022/03/17 09:06:38;;;;;;;41.60;37.30;;;11.90;97.20;;;;;;1708127;28;20202;-78
2022/03/17 09:07:30;;;;;;;39.55;35.65;;;11.80;97.20;;;;;;1707540;28;20203;-78
2022/03/17 09:08:22;;;;;;;40.70;36.72;;;11.80;97.20;;;;;;1706246;29;20740;-78
2022/03/17 09:09:13;;;;;;;41.13;37.13;;;11.80;97.20;;;;;;1706583;29;20194;-78
2022/03/17 09:10:06;;;;;;;40.30;36.20;;;11.80;97.20;;;;;;1707413;28;20198;-78
2022/03/17 09:10:57;;;;;;;40.45;36.25;;;11.80;97.20;;;;;;1707139;28;20658;-78
2022/03/17 09:11:48;;;;;;;39.78;35.92;;;11.80;97.20;;;;;;1707719;29;20202;-78
2022/03/17 09:12:39;;;;;;;39.40;35.25;;;11.80;97.20;;;;;;1707760;28;20206;-78
2022/03/17 09:13:32;;;;;;;39.65;35.55;;;11.80;97.20;;;;;;1707781;29;20205;-78
2022/03/17 09:14:24;;;;;;;38.72;34.80;;;11.80;97.20;;;;;;1707289;28;20210;-78
2022/03/17 09:15:15;;;;;;;40.17;36.30;;;11.80;97.20;;;;;;1707485;28;20253;-78
2022/03/17 09:16:06;;;;;;;38.05;34.28;;;11.80;97.20;;;;;;1707865;28;20202;-78
2022/03/17 09:16:58;;;;;;;38.30;34.60;;;11.90;97.20;;;;;;1707808;28;20818;-78
2022/03/17 09:17:49;;;;;;;40.20;36.30;;;11.90;97.20;;;;;;1707456;29;20210;-78
2022/03/17 09:18:42;;;;;;;40.87;36.63;;;11.90;97.20;;;;;;1707209;29;20200;-78
2022/03/17 09:19:33;;;;;;;40.45;36.25;;;11.80;97.20;;;;;;1707397;29;20650;-78
2022/03/17 09:20:25;;;;;;;40.03;36.13;;;11.90;97.20;;;;;;1707823;28;20624;-78
2022/03/17 09:21:17;;;;;;;40.15;35.97;;;11.90;97.20;;;;;;1707860;28;20664;-78
2022/03/17 09:22:10;;;;;;;38.97;35.15;;;11.90;97.20;;;;;;1707745;28;20261;-78
2022/03/17 09:23:02;;;;;;;40.03;36.03;;;11.90;97.20;;;;;;1707827;28;20587;-78
2022/03/17 09:23:58;;;;;;;41.53;37.42;;;11.90;97.20;;;;;;1707867;28;20269;-78
2022/03/17 09:24:49;;;;;;;39.38;35.50;;;11.90;97.20;;;;;;1707795;28;20206;-78
2022/03/17 09:25:44;;;;;;;42.10;37.90;;;11.90;97.20;;;;;;1707936;28;20753;-78
2022/03/17 09:26:34;;;;;;;40.00;36.20;;;11.90;97.20;;;;;;1707835;28;20246;-78
2022/03/17 09:27:28;;;;;;;38.63;35.03;;;11.90;97.20;;;;;;1707378;28;20203;-78
2022/03/17 09:28:19;;;;;;;38.50;34.53;;;12.00;97.20;;;;;;1707502;29;20678;-78
2022/03/17 09:29:10;;;;;;;40.10;36.20;;;12.00;97.20;;;;;;1707778;29;20692;-78
2022/03/17 09:30:01;;;;;;;39.38;35.47;;;12.00;97.20;;;;;;1707726;29;20217;-78
2022/03/17 09:30:54;;;;;;;38.03;34.35;;;12.00;97.20;;;;;;1707642;29;20593;-78
2022/03/17 09:31:46;;;;;;;39.17;35.05;;;12.00;97.20;;;;;;1707844;28;20646;-78
2022/03/17 09:32:38;;;;;;;40.20;36.40;;;12.00;97.20;;;;;;1707796;29;20214;-78
2022/03/17 09:33:30;;;;;;;38.95;35.33;;;12.00;97.20;;;;;;1707649;29;20222;-78
2022/03/17 09:34:21;;;;;;;39.10;35.30;;;12.00;97.20;;;;;;1707587;29;20207;-78
2022/03/17 09:35:12;;;;;;;36.65;32.97;;;12.00;97.20;;;;;;1707807;28;20217;-78
2022/03/17 09:36:05;;;;;;;37.92;34.28;;;12.00;97.20;;;;;;1707695;28;20210;-78
2022/03/17 09:36:55;;;;;;;36.30;32.85;;;12.10;97.20;;;;;;1707447;28;20695;-78
2022/03/17 09:37:49;;;;;;;38.43;34.43;;;12.10;97.20;;;;;;1707298;28;20194;-78
2022/03/17 09:38:41;;;;;;;38.95;34.85;;;12.10;97.20;;;;;;1707414;29;20660;-78
2022/03/17 09:39:45;;;;;;;40.20;36.22;;;12.10;97.20;;;;;;1707554;28;20206;-78
2022/03/17 09:40:38;;;;;;;38.65;34.78;;;12.10;97.20;;;;;;1707854;28;20270;-78
2022/03/17 09:41:33;;;;;;;38.08;34.28;;;12.10;97.20;;;;;;1707466;28;20266;-78
2022/03/17 09:42:25;;;;;;;39.33;35.47;;;12.10;97.20;;;;;;1707797;29;20273;-78
2022/03/17 09:43:18;;;;;;;39.00;35.25;;;12.10;97.20;;;;;;1707801;28;20210;-78
2022/03/17 09:44:10;;;;;;;37.50;33.83;;;12.10;97.20;;;;;;1707681;29;20692;-78
2022/03/17 09:45:02;;;;;;;38.78;34.95;;;12.10;97.20;;;;;;1707602;28;20211;-78
2022/03/17 09:45:58;;;;;;;37.78;33.88;;;12.10;97.20;;;;;;1707823;29;20206;-78
2022/03/17 09:46:50;;;;;;;38.00;34.20;;;12.10;97.20;;;;;;1707763;29;20229;-78
2022/03/17 09:47:44;;;;;;;38.20;34.47;;;12.10;97.20;;;;;;1707177;29;20201;-78
2022/03/17 09:48:35;;;;;;;37.20;33.70;;;12.10;97.20;;;;;;1707414;29;20207;-78
2022/03/17 09:49:27;;;;;;;36.60;33.03;;;12.20;97.20;;;;;;1707444;29;20290;-78
2022/03/17 09:50:19;;;;;;;37.45;33.85;;;12.20;97.20;;;;;;1707721;28;20698;-78
2022/03/17 09:51:11;;;;;;;36.80;33.25;;;12.20;97.20;;;;;;1707668;28;20198;-78
2022/03/17 09:52:05;;;;;;;39.78;35.88;;;12.20;97.20;;;;;;1707553;28;20800;-78
2022/03/17 09:52:59;;;;;;;37.47;33.78;;;12.20;97.20;;;;;;1707800;28;21173;-78
2022/03/17 09:53:53;;;;;;;38.60;34.97;;;12.20;97.20;;;;;;1707683;28;20692;-78
2022/03/17 09:54:44;;;;;;;37.92;34.22;;;12.30;97.20;;;;;;1707724;28;20210;-78
2022/03/17 09:55:36;;;;;;;38.75;34.95;;;12.30;97.20;;;;;;1707745;28;20194;-78
2022/03/17 09:56:28;;;;;;;37.30;33.60;;;12.30;97.20;;;;;;1707624;28;20263;-78
2022/03/17 09:57:21;;;;;;;36.13;32.53;;;12.30;97.20;;;;;;1707416;28;20619;-78
2022/03/17 09:58:12;;;;;;;38.85;34.88;;;12.30;97.20;;;;;;1700805;29;20202;-78
2022/03/17 09:59:06;;;;;;;37.33;33.50;;;12.30;97.20;;;;;;1700939;29;20222;-78
2022/03/17 09:59:58;;;;;;;36.28;32.63;;;12.30;97.20;;;;;;1700928;29;20211;-78
2022/03/17 10:00:52;;;;;;;38.40;34.70;;;12.40;97.20;;;;;;1706863;29;20309;-78
2022/03/17 10:01:44;;;;;;;38.97;34.78;;;12.40;97.20;;;;;;1707600;29;20230;-78
2022/03/17 10:02:37;;;;;;;37.30;33.45;;;12.40;97.20;;;;;;1707431;29;20729;-78
2022/03/17 10:03:29;;;;;;;36.63;33.08;;;12.40;97.20;;;;;;1707685;29;20209;-78
2022/03/17 10:04:21;;;;;;;35.15;31.85;;;12.40;97.20;;;;;;1707512;28;20281;-78
2022/03/17 10:05:12;;;;;;;37.88;34.10;;;12.40;97.20;;;;;;1707468;29;20202;-78
2022/03/17 10:06:07;;;;;;;36.25;32.60;;;12.40;97.20;;;;;;1707714;29;20202;-78
2022/03/17 10:07:00;;;;;;;35.28;31.75;;;12.50;97.20;;;;;;1707648;28;20214;-78
2022/03/17 10:07:50;;;;;;;37.15;33.65;;;12.50;97.20;;;;;;1707296;29;20210;-78
2022/03/17 10:08:48;;;;;;;36.20;32.60;;;12.40;97.20;;;;;;1707349;28;20205;-78
2022/03/17 10:09:38;;;;;;;36.15;32.55;;;12.40;97.20;;;;;;1707532;28;20342;-78
2022/03/17 10:10:36;;;;;;;35.90;32.50;;;12.40;97.20;;;;;;1707580;28;20202;-78
2022/03/17 10:11:30;;;;;;;36.08;32.47;;;12.40;97.20;;;;;;1707666;28;20438;-78
2022/03/17 10:12:21;;;;;;;35.55;32.25;;;12.40;97.20;;;;;;1707626;28;20214;-78
2022/03/17 10:13:17;;;;;;;36.10;32.60;;;12.40;97.20;;;;;;1707370;28;20206;-78
2022/03/17 10:14:09;;;;;;;33.88;30.55;;;12.40;97.20;;;;;;1707532;28;20207;-78
2022/03/17 10:15:01;;;;;;;36.28;32.72;;;12.40;97.20;;;;;;1707555;28;20202;-78
2022/03/17 10:16:07;;;;;;;36.55;32.72;;;12.50;97.20;;;;;;1707587;28;20206;-78
2022/03/17 10:16:59;;;;;;;35.33;31.83;;;12.50;97.20;;;;;;1707464;28;20556;-78
2022/03/17 10:17:50;;;;;;;36.20;32.65;;;12.50;97.20;;;;;;1707176;28;20199;-78
2022/03/17 10:18:43;;;;;;;36.67;33.00;;;12.50;97.20;;;;;;1707175;29;20216;-78
2022/03/17 10:19:34;;;;;;;34.28;31.08;;;12.50;97.20;;;;;;1707036;28;20207;-78
2022/03/17 10:20:27;;;;;;;35.25;31.95;;;12.50;97.20;;;;;;1707440;28;20210;-78
2022/03/17 10:21:24;;;;;;;35.85;32.42;;;12.50;97.20;;;;;;1707622;28;20286;-78
2022/03/17 10:22:15;;;;;;;35.85;32.35;;;12.40;97.20;;;;;;1707064;28;20240;-78
2022/03/17 10:23:06;;;;;;;37.80;33.80;;;12.40;97.20;;;;;;1707214;28;20270;-78
2022/03/17 10:24:02;;;;;;;36.70;32.97;;;12.50;97.20;;;;;;1704628;28;20198;-78
2022/03/17 10:24:52;;;;;;;33.30;29.92;;;12.50;97.20;;;;;;1701083;29;20207;-78
2022/03/17 10:25:45;;;;;;;34.83;31.53;;;12.50;97.20;;;;;;1700987;29;20286;-78
2022/03/17 10:26:42;;;;;;;35.35;31.67;;;12.50;97.20;;;;;;1701170;29;20215;-78
2022/03/17 10:27:37;;;;;;;36.70;32.92;;;12.50;97.20;;;;;;1702407;29;20235;-78
2022/03/17 10:28:30;;;;;;;34.95;31.63;;;12.50;97.20;;;;;;1707303;28;20682;-78
2022/03/17 10:29:26;;;;;;;35.67;32.28;;;12.50;97.20;;;;;;1707485;28;20213;-78